Terminal Aerodrome Forecast
Issued by NWS

Home | Current Version | Previous Version | Text Only | Print | Product List | Glossary On
Versions: 1 2 3 4 5 6 7 8 9 10 11 12 13 14 15 16 17 18 19 20 21
000
FTUS43 KAPX 281720
TAFAPN
TAF
KAPN 281720Z 2818/2918 20006KT P6SM BKN035 OVC100
     FM282200 16005KT P6SM BKN035 OVC100
     FM290000 16004KT 5SM -SN BR OVC028
     FM290300 15005KT 4SM -SN BR OVC022
     FM290700 15005KT 5SM -SN BR OVC018
     FM291200 17008KT 6SM -FZDZSN BR OVC012=

USA.gov is the U.S. government's official web portal to all federal, state and local government web resources and services.